Flight Track Log - Related Links

Times and Time Zones

All times are in EDT time to prevent confusion due to time zone crossing. See the SWA2521 flight status page for this flight to view local times or setup timezone preferences in your user account.

Time Position Orientation Groundspeed Altitude Reporting Facility
EDT Latitude Longitude Course Direction KTS MPH feet Rate Location/Type
Sat 08:36:42 AM 41.7667 -87.7667 90° East 148 170 2,300  Level Chicago TRACON
Sat 08:37:42 AM 41.7333 -87.7167 153° Southeast 217 250 3,200 2,511 Climbing Chicago TRACON
Sat 08:39:03 AM 41.7306 -87.6031 92° East 230 265 8,200 3,106 Climbing Chicago Center
Sat 08:40:03 AM 41.7369 -87.5058 85° East 272 313 10,500 2,710 Climbing Chicago Center
Sat 08:41:07 AM 41.7433 -87.3900 86° East 312 359 13,800 3,312 Climbing Chicago Center
Sat 08:42:00 AM 41.7667 -87.2963 90° East  Level FlightAware Approximate
Sat 08:42:08 AM 41.7503 -87.2708 85° East 320 368 17,400  Level Chicago Center
Sat 08:43:09 AM 41.7569 -87.1519 86° East 335 386 18,600 1,672 Climbing Chicago Center
Sat 08:44:10 AM 41.7622 -87.0039 87° East 391 450 20,800 2,066 Climbing Chicago Center
Sat 08:45:11 AM 41.7642 -86.8469 89° East 416 479 22,800 2,195 Climbing Chicago Center
Sat 08:46:13 AM 41.7650 -86.6694 90° East 431 496 25,300 2,115 Climbing Chicago Center
Sat 08:47:13 AM 41.7669 -86.5022 89° East 444 511 27,100 1,700 Climbing Chicago Center
Sat 08:48:13 AM 41.7675 -86.3281 90° East 464 534 28,700 1,597 Climbing Chicago Center
Sat 08:49:17 AM 41.7697 -86.1514 89° East 474 545 30,400 1,488 Climbing Chicago Center
Sat 08:50:18 AM 41.7719 -85.9692 89° East 485 558 31,800 1,636 Climbing Chicago Center
Sat 08:51:18 AM 41.7744 -85.7847 89° East 491 565 33,700 1,800 Climbing Chicago Center
Sat 08:52:18 AM 41.7775 -85.6017 89° East 490 564 35,400 1,512 Climbing Chicago Center
Sat 08:53:21 AM 41.7817 -85.4139 88° East 492 566 36,800 1,161 Climbing Chicago Center
Sat 08:54:22 AM 41.7814 -85.2250 90° East 499 574 37,800 927 Climbing Chicago Center
Sat 08:55:24 AM 41.7822 -85.0358 90° East 507 583 38,700 649 Climbing Chicago Center
Sat 08:56:13 AM 41.7806 -84.8497 91° East 501 577 39,000 162 Climbing Cleveland Center
Sat 08:57:15 AM 41.7783 -84.6669 91° East 498 573 39,000  Level Cleveland Center
Sat 08:58:16 AM 41.7683 -84.4831 94° East 497 572 39,000  Level Cleveland Center
Sat 08:59:18 AM 41.7575 -84.3011 95° East 493 567 39,000  Level Cleveland Center
Sat 09:00:19 AM 41.7458 -84.1122 95° East 490 564 39,000  Level Cleveland Center
Sat 09:01:20 AM 41.7344 -83.9333 95° East 487 560 39,000  Level Cleveland Center
Sat 09:02:22 AM 41.7222 -83.7564 95° East 487 560 39,000  Level Cleveland Center
Sat 09:03:23 AM 41.7106 -83.5789 95° East 485 558 39,000  Level Cleveland Center
Sat 09:04:25 AM 41.6958 -83.3681 95° East 482 555 39,000  Level Cleveland Center
Sat 09:05:26 AM 41.6842 -83.1928 95° East 480 552 39,000  Level Cleveland Center
Sat 09:06:28 AM 41.6728 -83.0175 95° East 479 551 39,000  Level Cleveland Center
Sat 09:07:30 AM 41.6597 -82.8431 96° East 477 549 39,000  Level Cleveland Center
Sat 09:08:31 AM 41.6467 -82.6683 96° East 476 548 39,000  Level Cleveland Center
Sat 09:09:32 AM 41.6325 -82.4858 96° East 476 548 39,000  Level Cleveland Center
Sat 09:10:34 AM 41.6192 -82.3119 96° East 471 542 39,000  Level Cleveland Center
Sat 09:11:35 AM 41.6058 -82.1378 96° East 469 540 39,000  Level Cleveland Center
Sat 09:12:37 AM 41.5931 -81.9661 96° East 463 533 39,000  Level Cleveland Center
Sat 09:13:39 AM 41.5786 -81.7908 96° East 464 534 39,000  Level Cleveland Center
Sat 09:14:40 AM 41.5653 -81.6139 96° East 467 537 39,000  Level Cleveland Center
Sat 09:15:42 AM 41.5492 -81.4381 97° East 467 537 39,000  Level Cleveland Center
Sat 09:16:43 AM 41.5308 -81.2347 97° East 467 537 39,000  Level Cleveland Center
Sat 09:17:45 AM 41.5153 -81.0600 97° East 468 539 39,000  Level Cleveland Center
Sat 09:18:46 AM 41.4997 -80.8858 97° East 470 541 39,000  Level Cleveland Center
Sat 09:19:48 AM 41.4833 -80.7106 97° East 471 542 39,000  Level Cleveland Center
Sat 09:20:49 AM 41.4675 -80.5347 97° East 473 544 39,000  Level Cleveland Center
Sat 09:21:51 AM 41.4517 -80.3617 97° East 470 541 39,000  Level Cleveland Center
Sat 09:22:53 AM 41.4350 -80.1956 98° East 469 540 39,000  Level Cleveland Center
Sat 09:23:54 AM 41.4183 -80.0239 97° East 470 541 39,000  Level Cleveland Center
Sat 09:24:56 AM 41.3997 -79.8361 97° East 468 539 39,000  Level Cleveland Center
Sat 09:25:57 AM 41.3825 -79.6653 98° East 469 540 39,000  Level Cleveland Center
Sat 09:26:59 AM 41.3633 -79.4731 98° East 469 540 39,000  Level Cleveland Center
Sat 09:28:01 AM 41.3458 -79.3031 98° East 468 539 39,000  Level Cleveland Center
Sat 09:29:02 AM 41.3261 -79.1208 98° East 467 537 39,000  Level Cleveland Center
Sat 09:30:04 AM 41.3081 -78.9506 98° East 467 537 39,000  Level Cleveland Center
Sat 09:31:06 AM 41.2908 -78.7881 98° East 468 539 39,000  Level Cleveland Center
Sat 09:32:07 AM 41.2722 -78.6172 98° East 469 540 39,000 -780 Level Cleveland Center
Sat 09:33:09 AM 41.2522 -78.4442 99° East 470 541 37,400 -2,098 Descending Cleveland Center
Sat 09:34:10 AM 41.2325 -78.2747 99° East 470 541 34,700 -2,146 Descending Cleveland Center
Sat 09:35:12 AM 41.2108 -78.0903 99° East 467 537 33,000 -823 Descending Cleveland Center
Sat 09:36:14 AM 41.1897 -77.9256 100° East 461 531 33,000  Level Cleveland Center
Sat 09:37:15 AM 41.1647 -77.7308 100° East 453 521 33,000  Level Cleveland Center
Sat 09:38:17 AM 41.1450 -77.5708 99° East 448 516 33,000  Level Cleveland Center
Sat 09:39:19 AM 41.1250 -77.4108 99° East 447 514 33,000 -655 Level Cleveland Center
Sat 09:40:07 AM 41.1053 -77.2808 101° East 444 511 31,800 -1,872 Descending New York Center
Sat 09:41:08 AM 41.0850 -77.1192 99° East 439 505 29,600 -2,118 Descending New York Center
Sat 09:42:06 AM 41.0619 -76.9656 101° East 434 499 27,600 -1,966 Descending New York Center
Sat 09:43:07 AM 41.0408 -76.8097 100° East 429 494 25,700 -1,672 Descending New York Center
Sat 09:44:08 AM 41.0208 -76.6647 100° East 416 479 24,200 -1,736 Descending New York Center
Sat 09:45:08 AM 40.9842 -76.5214 109° East 411 473 22,200 -2,067 Descending New York Center
Sat 09:46:07 AM 40.9514 -76.3786 107° East 411 473 20,100 -2,050 Descending New York Center
Sat 09:47:08 AM 40.9239 -76.2553 106° East 396 456 18,100 -1,059 Descending New York Center
Sat 09:48:06 AM 40.8944 -76.1239 106° East 381 438 18,000 -908 Descending New York Center
Sat 09:49:07 AM 40.8589 -75.9867 109° East 370 426 16,300 -1,636 Descending New York Center
Sat 09:50:07 AM 40.8269 -75.8581 108° East 370 426 14,700 -1,636 Descending New York Center
Sat 09:51:08 AM 40.7947 -75.7378 109° East 365 420 13,000 -1,339 Descending New York Center
Sat 09:52:08 AM 40.7561 -75.6117 112° Southeast 360 414 12,000 -966 Descending New York Center
Sat 09:53:06 AM 40.7214 -75.4942 111° Southeast 372 428 11,100 -950 Descending New York Center
Sat 09:54:08 AM 40.6783 -75.3656 114° Southeast 379 436 10,100 -541 Descending New York Center
Sat 09:55:08 AM 40.6417 -75.2400 111° Southeast 374 430 10,000 -50 Descending New York Center
Sat 09:56:08 AM 40.6025 -75.1117 112° Southeast 374 430 10,000  Level New York Center
Sat 09:57:08 AM 40.5633 -74.9889 113° Southeast 369 425 10,000  Level New York Center
Sat 09:58:06 AM 40.5244 -74.8528 111° Southeast 364 419 10,000  Level New York Center
Sat 09:59:08 AM 40.4847 -74.7275 113° Southeast 364 419 10,000  Level New York Center
Sat 09:59:55 AM 40.4500 -74.6167 112° Southeast 350 403 10,000 -471 Level New York TRACON
Sat 10:00:50 AM 40.4333 -74.5333 105° East 306 352 9,200 -939 Descending New York TRACON
Sat 10:01:50 AM 40.4667 -74.4167 69° East 295 339 8,200 -1,000 Descending New York TRACON
Sat 10:02:56 AM 40.4833 -74.3167 78° East 289 333 7,100 -576 Descending New York TRACON
Sat 10:03:55 AM 40.5167 -74.2167 66° East 280 322 7,000 -50 Descending New York TRACON
Sat 10:04:56 AM 40.5333 -74.1333 75° East 240 276 7,000 -446 Level New York TRACON
Sat 10:05:56 AM 40.5667 -74.0667 57° Northeast 202 232 6,100 -1,053 Descending New York TRACON
Sat 10:06:50 AM 40.6167 -74.0333 27° Northeast 202 232 5,000 -1,050 Descending New York TRACON
Sat 10:07:56 AM 40.6500 -73.9833 49° Northeast 191 220 4,000 -1,000 Descending New York TRACON
Sat 10:08:56 AM 40.7000 -73.9500 27° Northeast 187 215 2,900 -1,000 Descending New York TRACON
Sat 10:09:56 AM 40.7167 -73.8833 72° East 181 208 2,000 -900 Descending New York TRACON
Sat 10:10:56 AM 40.7333 -73.8333 66° East 158 182 1,100 -900 Descending New York TRACON
Sat 10:11:56 AM 40.7667 -73.8500 339° North 145 167 200 -900 Descending New York TRACON
Sat 10:18:00 AM 40.7667 -73.8667 189° South  Level FlightAware Approximate
Sat 10:25:00 AM 40.7772 -73.8726 189° South  Level Estimated
Sat 10:26:00 AM 40.7772 -73.8726 189° South  Level Estimated
Sat 10:27:00 AM 40.7772 -73.8726 189° South  Level Estimated

Login

Don't have an account? Register now (free) for customized features, flight alerts, and more!